createdAt,value
2019-02-18T00:01:56.823Z,64.30
2019-02-18T00:05:02.612Z,67.00
2019-02-18T00:08:09.789Z,73.17
2019-02-18T00:11:15.574Z,77.83
2019-02-18T00:14:21.375Z,68.77
2019-02-18T00:17:27.158Z,80.10
2019-02-18T00:20:32.975Z,80.43
2019-02-18T00:23:38.790Z,82.20
2019-02-18T00:26:44.601Z,81.97
2019-02-18T00:29:50.360Z,80.60
2019-02-18T00:32:56.165Z,84.90
2019-02-18T00:36:01.920Z,65.33
2019-02-18T00:39:07.919Z,79.57
2019-02-18T00:42:13.797Z,57.00
2019-02-18T00:45:19.675Z,55.77
2019-02-18T00:48:25.462Z,49.43
2019-02-18T00:51:31.327Z,46.60
2019-02-18T00:54:37.107Z,60.13
2019-02-18T00:57:42.973Z,58.50
2019-02-18T01:00:48.745Z,62.83
2019-02-18T01:03:54.504Z,49.40
2019-02-18T01:07:00.313Z,55.70
2019-02-18T01:10:06.698Z,73.20
2019-02-18T01:13:12.548Z,62.23
2019-02-18T01:16:18.312Z,60.07
2019-02-18T01:19:24.281Z,52.53
2019-02-18T01:22:30.093Z,48.67
2019-02-18T01:25:35.903Z,55.70
2019-02-18T01:28:41.688Z,51.87
2019-02-18T01:31:47.563Z,59.07
2019-02-18T01:34:53.350Z,56.50
2019-02-18T01:37:59.125Z,52.80
2019-02-18T01:41:05.012Z,45.00
2019-02-18T01:44:10.776Z,48.67
2019-02-18T01:47:16.548Z,47.47
2019-02-18T01:50:22.824Z,48.90
2019-02-18T01:53:28.629Z,45.67
2019-02-18T01:56:34.401Z,51.70
2019-02-18T01:59:40.173Z,47.30
2019-02-18T02:02:45.938Z,50.67
2019-02-18T02:05:51.795Z,49.20
2019-02-18T02:08:57.700Z,53.00
2019-02-18T02:12:03.520Z,90.50
2019-02-18T02:15:12.592Z,127.97
2019-02-18T02:18:19.421Z,93.60
2019-02-18T02:21:25.183Z,63.40
2019-02-18T02:24:31.020Z,47.27
2019-02-18T02:27:36.792Z,55.27
2019-02-18T02:30:42.590Z,49.57
2019-02-18T02:33:49.450Z,53.70
2019-02-18T02:36:55.258Z,42.10
2019-02-18T02:40:01.042Z,71.43
2019-02-18T02:43:07.501Z,67.37
2019-02-18T02:46:13.263Z,44.23
2019-02-18T02:49:19.043Z,42.23
2019-02-18T02:52:24.828Z,50.17
2019-02-18T02:55:30.630Z,43.03
2019-02-18T02:58:36.426Z,45.97
2019-02-18T03:01:42.201Z,36.40
2019-02-18T03:04:47.983Z,34.70
2019-02-18T03:07:53.872Z,36.57
2019-02-18T03:10:59.636Z,42.97
2019-02-18T03:14:05.468Z,44.50
2019-02-18T03:17:11.246Z,40.83
2019-02-18T03:20:17.059Z,38.73
2019-02-18T03:23:22.936Z,38.77
2019-02-18T03:26:28.817Z,38.57
2019-02-18T03:30:13.963Z,37.67
2019-02-18T03:33:40.571Z,38.53
2019-02-18T03:36:46.446Z,37.27
2019-02-18T03:39:52.250Z,36.77
2019-02-18T03:42:58.046Z,38.57
2019-02-18T03:46:03.936Z,39.77
2019-02-18T03:49:09.716Z,33.33
2019-02-18T03:52:15.605Z,37.63
2019-02-18T03:55:21.396Z,40.33
2019-02-18T03:58:27.271Z,38.80
2019-02-18T04:01:33.268Z,34.70
2019-02-18T04:04:39.050Z,34.43
2019-02-18T04:07:44.828Z,33.23
2019-02-18T04:10:50.623Z,41.27
2019-02-18T04:13:56.442Z,40.53
2019-02-18T04:17:02.333Z,39.90
2019-02-18T04:20:08.342Z,37.00
2019-02-18T04:23:14.169Z,32.57
2019-02-18T04:26:20.164Z,39.27
2019-02-18T04:29:26.131Z,36.30
2019-02-18T04:32:31.943Z,39.67
2019-02-18T04:35:37.765Z,33.37
2019-02-18T04:38:53.856Z,33.33
2019-02-18T04:41:51.021Z,36.63
2019-02-18T04:44:56.846Z,41.33
2019-02-18T04:48:02.636Z,37.93
2019-02-18T04:51:08.419Z,37.03
2019-02-18T04:54:14.210Z,35.20
2019-02-18T04:57:20.008Z,35.63
2019-02-18T05:00:25.809Z,35.47
2019-02-18T05:03:32.197Z,27.53
2019-02-18T05:06:38.086Z,30.23
2019-02-18T05:09:43.867Z,31.77
2019-02-18T05:12:50.600Z,42.20
2019-02-18T05:15:57.995Z,37.93
2019-02-18T05:19:06.678Z,35.60
2019-02-18T05:22:12.448Z,37.90
2019-02-18T05:25:18.255Z,33.90
2019-02-18T05:28:24.055Z,38.47
2019-02-18T05:31:29.887Z,35.93
2019-02-18T05:34:36.730Z,40.70
2019-02-18T05:37:42.519Z,31.27
2019-02-18T05:40:48.289Z,31.93
2019-02-18T05:43:54.216Z,31.27
2019-02-18T05:46:59.990Z,38.13
2019-02-18T05:50:05.996Z,36.30
2019-02-18T05:53:11.777Z,36.67
2019-02-18T05:56:18.661Z,37.50
2019-02-18T05:59:24.454Z,32.97
2019-02-18T06:02:30.272Z,40.63
2019-02-18T06:05:36.073Z,35.33
2019-02-18T06:08:41.934Z,36.20
2019-02-18T06:11:47.690Z,37.70
2019-02-18T06:14:53.500Z,38.67
2019-02-18T06:17:59.277Z,34.07
2019-02-18T06:21:05.126Z,30.17
2019-02-18T06:24:10.982Z,30.57
2019-02-18T06:27:18.374Z,32.50
2019-02-18T06:30:24.150Z,30.17
2019-02-18T06:33:29.989Z,29.90
2019-02-18T06:36:35.774Z,38.07
2019-02-18T06:39:42.137Z,34.33
2019-02-18T06:42:48.031Z,28.77
2019-02-18T06:46:01.070Z,39.73
2019-02-18T06:49:12.677Z,40.20
2019-02-18T06:52:19.288Z,46.57
2019-02-18T06:55:25.169Z,45.80
2019-02-18T06:58:43.806Z,49.27
2019-02-18T07:02:00.415Z,54.03
2019-02-18T07:05:21.572Z,64.17
2019-02-18T07:08:46.799Z,59.07
2019-02-18T07:12:11.521Z,58.87
2019-02-18T07:15:17.426Z,81.97
2019-02-18T07:18:23.240Z,47.93
2019-02-18T07:21:29.025Z,49.83
2019-02-18T07:24:34.947Z,50.83
2019-02-18T07:27:40.704Z,52.67
2019-02-18T07:30:46.537Z,57.10
2019-02-18T07:33:52.366Z,84.50
2019-02-18T07:36:58.214Z,85.73
2019-02-18T07:40:04.113Z,73.07
2019-02-18T07:43:09.945Z,41.53
2019-02-18T07:46:15.723Z,47.50
2019-02-18T07:49:21.511Z,44.40
2019-02-18T07:52:27.334Z,40.53
2019-02-18T07:55:33.228Z,46.63
2019-02-18T07:58:39.018Z,48.97
2019-02-18T08:01:44.958Z,47.70
2019-02-18T08:04:50.715Z,48.83
2019-02-18T08:07:56.484Z,55.27
2019-02-18T08:11:02.245Z,48.77
2019-02-18T08:14:08.031Z,47.10
2019-02-18T08:17:13.861Z,45.10
2019-02-18T08:20:19.633Z,34.97
2019-02-18T08:23:25.381Z,32.00
2019-02-18T08:26:31.264Z,34.97
2019-02-18T08:29:37.025Z,37.00
2019-02-18T08:32:43.884Z,37.73
2019-02-18T08:35:49.742Z,39.37
2019-02-18T08:38:55.563Z,37.77
2019-02-18T08:42:01.425Z,26.00
2019-02-18T08:45:08.997Z,26.70
2019-02-18T08:48:14.810Z,23.10
2019-02-18T08:51:20.616Z,27.20
2019-02-18T08:54:26.402Z,20.93
2019-02-18T08:57:32.296Z,22.43
2019-02-18T09:00:38.211Z,26.63
2019-02-18T09:03:44.032Z,22.73
2019-02-18T09:06:49.870Z,22.50
2019-02-18T09:09:55.649Z,22.37
2019-02-18T09:13:01.483Z,20.70
2019-02-18T09:16:07.467Z,19.37
2019-02-18T09:19:13.273Z,19.77
2019-02-18T09:22:51.314Z,21.63
2019-02-18T09:25:59.747Z,23.40
2019-02-18T09:29:05.534Z,25.47
2019-02-18T09:32:11.302Z,24.87
2019-02-18T09:35:17.189Z,29.77
2019-02-18T09:38:25.303Z,25.03
2019-02-18T09:41:30.764Z,25.40
2019-02-18T09:44:36.916Z,22.37
2019-02-18T09:47:42.784Z,27.37
2019-02-18T09:50:48.790Z,26.50
2019-02-18T09:53:54.576Z,24.37
2019-02-18T09:57:00.505Z,24.23
2019-02-18T10:00:07.369Z,23.33
2019-02-18T10:03:13.301Z,33.73
2019-02-18T10:06:20.112Z,27.17
2019-02-18T10:09:25.929Z,21.33
2019-02-18T10:12:31.907Z,18.70
2019-02-18T10:15:37.813Z,21.13
2019-02-18T10:18:43.759Z,26.60
2019-02-18T10:21:49.565Z,25.90
2019-02-18T10:24:55.424Z,21.63
2019-02-18T10:28:02.000Z,20.90
2019-02-18T10:31:07.805Z,23.03
2019-02-18T10:34:13.641Z,24.03
2019-02-18T10:37:19.531Z,22.10
2019-02-18T10:40:25.346Z,24.60
2019-02-18T10:43:32.682Z,23.10
2019-02-18T10:46:40.686Z,23.43
2019-02-18T10:49:46.624Z,20.30
2019-02-18T10:52:52.469Z,23.57
2019-02-18T10:55:58.611Z,21.60
2019-02-18T10:59:04.508Z,19.80
2019-02-18T11:02:10.393Z,24.23
2019-02-18T11:05:16.306Z,22.40
2019-02-18T11:08:22.126Z,21.93
2019-02-18T11:11:27.894Z,23.53
2019-02-18T11:14:33.873Z,49.40
2019-02-18T11:17:39.633Z,23.20
2019-02-18T11:20:45.567Z,19.53
2019-02-18T11:23:51.337Z,17.77
2019-02-18T11:26:57.154Z,17.93
2019-02-18T11:30:03.057Z,17.93
2019-02-18T11:33:09.858Z,21.33
2019-02-18T11:36:15.718Z,16.37
2019-02-18T11:39:21.622Z,16.77
2019-02-18T11:42:27.500Z,20.00
2019-02-18T11:45:34.887Z,21.20
2019-02-18T11:48:41.049Z,16.97
2019-02-18T11:51:46.843Z,15.20
2019-02-18T11:54:53.022Z,18.00
2019-02-18T11:57:58.833Z,22.23
2019-02-18T12:01:04.805Z,18.03
2019-02-18T12:04:10.688Z,19.43
2019-02-18T12:07:16.462Z,24.00
2019-02-18T12:10:22.279Z,17.13
2019-02-18T12:13:28.063Z,21.80
2019-02-18T12:16:33.985Z,23.07
2019-02-18T12:19:39.797Z,24.13
2019-02-18T12:22:45.615Z,20.90
2019-02-18T12:25:51.513Z,15.20
2019-02-18T12:28:57.380Z,21.70
2019-02-18T12:32:03.157Z,16.57
2019-02-18T12:35:09.181Z,13.63
2019-02-18T12:38:17.336Z,13.93
2019-02-18T12:41:22.452Z,16.23
2019-02-18T12:44:28.249Z,19.10
2019-02-18T12:47:34.167Z,17.73
2019-02-18T12:50:39.988Z,12.70
2019-02-18T12:53:46.471Z,16.13
2019-02-18T12:56:52.534Z,17.33
2019-02-18T12:59:58.698Z,26.50
2019-02-18T13:03:05.177Z,14.83
2019-02-18T13:06:11.075Z,19.93
2019-02-18T13:09:16.879Z,20.53
2019-02-18T13:12:22.795Z,19.40
2019-02-18T13:15:28.567Z,19.40
2019-02-18T13:18:34.438Z,12.50
2019-02-18T13:21:40.231Z,14.07
2019-02-18T13:24:46.094Z,15.20
2019-02-18T13:27:51.876Z,53.50
2019-02-18T13:30:57.645Z,19.00
2019-02-18T13:34:05.270Z,9.30
2019-02-18T13:37:13.175Z,20.63
2019-02-18T13:40:18.929Z,10.23
2019-02-18T13:43:30.092Z,7.50
2019-02-18T13:46:35.955Z,11.97
2019-02-18T13:49:42.138Z,15.63
2019-02-18T13:52:48.150Z,23.57
2019-02-18T13:55:54.020Z,13.67
2019-02-18T13:58:59.892Z,12.47
2019-02-18T14:02:06.075Z,8.93
2019-02-18T14:05:12.337Z,12.20
2019-02-18T14:08:18.188Z,9.00
2019-02-18T14:11:24.060Z,11.07
2019-02-18T14:14:29.812Z,12.27
2019-02-18T14:17:35.561Z,13.10
2019-02-18T14:20:41.509Z,10.87
2019-02-18T14:23:47.307Z,17.17
2019-02-18T14:26:53.108Z,11.93
2019-02-18T14:29:58.883Z,14.30
2019-02-18T14:33:04.763Z,10.83
2019-02-18T14:36:10.987Z,24.00
2019-02-18T14:39:24.190Z,19.97
2019-02-18T14:42:34.948Z,15.53
2019-02-18T14:45:40.584Z,20.40
2019-02-18T14:48:46.855Z,18.93
2019-02-18T14:51:53.156Z,19.57
2019-02-18T14:54:59.356Z,37.53
2019-02-18T14:58:05.874Z,19.33
2019-02-18T15:01:12.225Z,14.00
2019-02-18T15:04:18.101Z,15.30
2019-02-18T15:07:24.043Z,20.83
2019-02-18T15:10:29.879Z,24.70
2019-02-18T15:13:35.765Z,24.47
2019-02-18T15:16:41.597Z,27.33
2019-02-18T15:19:47.654Z,32.47
2019-02-18T15:22:53.456Z,20.40
2019-02-18T15:25:59.223Z,35.53
2019-02-18T15:29:05.110Z,32.60
2019-02-18T15:32:11.009Z,91.30
2019-02-18T15:35:16.985Z,50.30
2019-02-18T15:38:22.895Z,38.97
2019-02-18T15:41:28.878Z,75.43
2019-02-18T15:44:34.692Z,53.60
2019-02-18T15:47:40.561Z,45.93
2019-02-18T15:50:46.845Z,58.53
2019-02-18T15:53:52.880Z,48.07
2019-02-18T15:56:58.786Z,48.77
2019-02-18T16:00:05.004Z,55.33
2019-02-18T16:03:12.445Z,50.63
2019-02-18T16:06:18.442Z,47.70
2019-02-18T16:09:24.217Z,58.43
2019-02-18T16:12:30.106Z,69.87
2019-02-18T16:15:35.884Z,69.47
2019-02-18T16:18:41.790Z,68.40
2019-02-18T16:21:47.994Z,64.40
2019-02-18T16:24:53.802Z,58.17
2019-02-18T16:27:59.615Z,63.27
2019-02-18T16:31:05.523Z,65.20
2019-02-18T16:34:11.333Z,64.47
2019-02-18T16:37:17.169Z,63.80
2019-02-18T16:40:23.975Z,62.20
2019-02-18T16:43:29.760Z,76.60
2019-02-18T16:46:35.576Z,98.23
2019-02-18T16:49:41.713Z,110.47
2019-02-18T16:52:48.080Z,129.43
2019-02-18T16:55:53.944Z,75.23
2019-02-18T16:58:59.730Z,68.20
2019-02-18T17:02:05.764Z,91.37
2019-02-18T17:05:11.637Z,118.33
2019-02-18T17:08:17.463Z,109.43
2019-02-18T17:11:23.319Z,80.60
2019-02-18T17:14:29.145Z,78.10
2019-02-18T17:17:34.963Z,125.50
2019-02-18T17:20:40.754Z,133.87
2019-02-18T17:23:46.780Z,132.73
2019-02-18T17:26:52.645Z,198.40
2019-02-18T17:29:58.398Z,177.97
2019-02-18T17:33:06.862Z,179.40
2019-02-18T17:36:12.622Z,137.43
2019-02-18T17:39:19.507Z,118.50
2019-02-18T17:42:25.302Z,112.93
2019-02-18T17:45:31.265Z,88.63
2019-02-18T17:48:37.157Z,91.60
2019-02-18T17:51:43.131Z,88.80
2019-02-18T17:54:49.411Z,78.53
2019-02-18T17:57:55.188Z,77.77
2019-02-18T18:01:01.179Z,76.43
2019-02-18T18:04:08.079Z,117.50
2019-02-18T18:07:14.069Z,120.23
2019-02-18T18:10:20.025Z,101.40
2019-02-18T18:13:26.737Z,131.77
2019-02-18T18:16:32.614Z,135.00
2019-02-18T18:19:38.405Z,137.40
2019-02-18T18:22:44.386Z,125.80
2019-02-18T18:25:50.549Z,126.80
2019-02-18T18:28:56.442Z,135.70
2019-02-18T18:32:02.430Z,126.63
2019-02-18T18:35:10.389Z,127.97
2019-02-18T18:38:16.183Z,117.37
2019-02-18T18:41:21.997Z,144.50
2019-02-18T18:44:27.813Z,161.77
2019-02-18T18:47:33.673Z,163.90
2019-02-18T18:50:39.481Z,136.60
2019-02-18T18:53:45.261Z,157.07
2019-02-18T18:56:51.152Z,134.30
2019-02-18T18:59:58.006Z,115.90
2019-02-18T19:03:03.825Z,104.77
2019-02-18T19:06:09.705Z,97.00
2019-02-18T19:09:15.504Z,95.53
2019-02-18T19:12:21.304Z,90.07
2019-02-18T19:15:28.654Z,91.10
2019-02-18T19:18:34.643Z,93.27
2019-02-18T19:21:40.575Z,96.13
2019-02-18T19:24:46.739Z,92.53
2019-02-18T19:27:52.784Z,92.30
2019-02-18T19:30:58.593Z,99.77
2019-02-18T19:34:04.433Z,105.07
2019-02-18T19:37:10.257Z,111.27
2019-02-18T19:40:16.592Z,120.63
2019-02-18T19:43:22.681Z,109.40
2019-02-18T19:46:28.491Z,109.17
2019-02-18T19:49:34.301Z,116.53
2019-02-18T19:52:40.116Z,113.27
2019-02-18T19:55:46.047Z,112.57
2019-02-18T19:58:51.815Z,115.57
2019-02-18T20:01:57.678Z,105.63
2019-02-18T20:05:03.579Z,109.53
2019-02-18T20:08:09.399Z,119.77
2019-02-18T20:11:15.396Z,105.03
2019-02-18T20:14:21.232Z,76.10
2019-02-18T20:17:27.114Z,61.90
2019-02-18T20:20:32.969Z,71.23
2019-02-18T20:23:38.776Z,101.40
2019-02-18T20:26:44.639Z,91.27
2019-02-18T20:29:51.541Z,88.27
2019-02-18T20:32:57.633Z,108.70
2019-02-18T20:36:03.450Z,102.13
2019-02-18T20:39:09.956Z,96.07
2019-02-18T20:42:17.056Z,105.27
2019-02-18T20:45:22.960Z,111.30
2019-02-18T20:48:30.230Z,129.70
2019-02-18T20:51:36.108Z,131.67
2019-02-18T20:54:41.932Z,133.20
2019-02-18T20:57:50.761Z,136.33
2019-02-18T21:00:56.807Z,133.97
2019-02-18T21:04:02.833Z,131.90
2019-02-18T21:07:08.903Z,123.17
2019-02-18T21:10:15.198Z,120.73
2019-02-18T21:13:21.132Z,119.10
2019-02-18T21:16:26.930Z,102.77
2019-02-18T21:19:32.754Z,105.83
2019-02-18T21:22:38.520Z,86.43
2019-02-18T21:25:44.908Z,81.70
2019-02-18T21:28:50.688Z,72.80
2019-02-18T21:31:56.470Z,78.00
2019-02-18T21:35:02.298Z,75.73
2019-02-18T21:38:08.061Z,71.70
2019-02-18T21:41:13.836Z,78.17
2019-02-18T21:44:25.157Z,75.00
2019-02-18T21:47:28.181Z,70.80
2019-02-18T21:50:33.960Z,63.53
2019-02-18T21:53:39.737Z,55.73
2019-02-18T21:56:45.545Z,53.00
2019-02-18T21:59:51.443Z,50.27
2019-02-18T22:02:57.213Z,50.20
2019-02-18T22:06:03.082Z,48.53
2019-02-18T22:09:09.045Z,46.93
2019-02-18T22:12:15.481Z,48.10
2019-02-18T22:15:21.299Z,43.97
2019-02-18T22:18:27.100Z,39.47
2019-02-18T22:21:32.907Z,38.73
2019-02-18T22:24:38.700Z,40.07
2019-02-18T22:27:46.352Z,45.73
2019-02-18T22:30:52.140Z,45.47
2019-02-18T22:33:57.930Z,44.97
2019-02-18T22:37:04.177Z,49.43
2019-02-18T22:40:10.090Z,53.07
2019-02-18T22:43:15.885Z,50.67
2019-02-18T22:46:21.753Z,49.97
2019-02-18T22:49:27.530Z,59.27
2019-02-18T22:52:33.363Z,67.17
2019-02-18T22:55:39.208Z,78.60
2019-02-18T22:58:44.986Z,76.27
2019-02-18T23:01:50.866Z,71.97
2019-02-18T23:04:56.646Z,80.53
2019-02-18T23:08:02.549Z,75.03
2019-02-18T23:11:08.422Z,69.57
2019-02-18T23:14:14.200Z,69.53
2019-02-18T23:17:20.030Z,59.20
2019-02-18T23:20:25.788Z,66.17
2019-02-18T23:23:31.570Z,63.90
2019-02-18T23:26:37.805Z,69.83
2019-02-18T23:29:43.572Z,67.97
2019-02-18T23:32:49.339Z,74.07
2019-02-18T23:35:55.115Z,64.77
2019-02-18T23:39:00.930Z,66.57
2019-02-18T23:42:08.363Z,68.10
2019-02-18T23:45:14.253Z,68.30
2019-02-18T23:48:20.065Z,66.50
2019-02-18T23:51:26.955Z,74.63
2019-02-18T23:54:33.719Z,61.37
2019-02-18T23:57:39.491Z,60.93
